createdAt,value
2023-01-10T00:00:10.518Z,90.7
2023-01-10T00:01:11.755Z,90.7
2023-01-10T00:02:12.372Z,90.7
2023-01-10T00:03:13.277Z,90.6
2023-01-10T00:04:14.731Z,90.6
2023-01-10T00:05:15.843Z,90.7
2023-01-10T00:06:16.980Z,90.7
2023-01-10T00:07:17.884Z,90.7
2023-01-10T00:08:19.023Z,90.8
2023-01-10T00:09:20.163Z,90.8
2023-01-10T00:10:21.068Z,90.8
2023-01-10T00:11:21.931Z,90.8
2023-01-10T00:12:22.831Z,90.8
2023-01-10T00:13:23.894Z,90.8
2023-01-10T00:14:24.709Z,90.8
2023-01-10T00:15:25.857Z,90.8
2023-01-10T00:16:27.046Z,90.8
2023-01-10T00:17:27.946Z,90.8
2023-01-10T00:18:28.805Z,90.8
2023-01-10T00:19:29.708Z,90.7
2023-01-10T00:20:30.607Z,90.7
2023-01-10T00:21:31.226Z,90.7
2023-01-10T00:22:32.081Z,90.6
2023-01-10T00:23:33.226Z,90.6
2023-01-10T00:24:33.837Z,90.5
2023-01-10T00:25:35.023Z,90.5
2023-01-10T00:26:35.989Z,90.5
2023-01-10T00:27:37.104Z,90.4
2023-01-10T00:28:37.725Z,90.4
2023-01-10T00:29:38.642Z,90.4
2023-01-10T00:30:40.068Z,90.5
2023-01-10T00:31:40.997Z,90.5
2023-01-10T00:32:42.110Z,90.6
2023-01-10T00:33:43.011Z,90.7
2023-01-10T00:34:44.143Z,90.7
2023-01-10T00:35:44.767Z,90.7
2023-01-10T00:36:45.921Z,90.6
2023-01-10T00:37:47.100Z,90.6
2023-01-10T00:38:48.240Z,90.6
2023-01-10T00:39:49.088Z,90.5
2023-01-10T00:40:50.228Z,90.5
2023-01-10T00:41:51.148Z,90.4
2023-01-10T00:42:51.999Z,90.3
2023-01-10T00:43:52.869Z,90.2
2023-01-10T00:44:53.999Z,90.2
2023-01-10T00:45:54.689Z,90.1
2023-01-10T00:46:55.695Z,90.1
2023-01-10T00:47:56.880Z,90.1
2023-01-10T00:48:57.776Z,90.1
2023-01-10T00:49:59.308Z,90.1
2023-01-10T00:51:00.722Z,90.1
2023-01-10T00:52:01.853Z,90.2
2023-01-10T00:53:02.472Z,90.2
2023-01-10T00:54:03.376Z,90.3
2023-01-10T00:55:04.781Z,90.3
2023-01-10T00:56:05.931Z,90.3
2023-01-10T00:57:07.057Z,90.3
2023-01-10T00:58:08.195Z,90.3
2023-01-10T00:59:09.099Z,90.3
2023-01-10T01:00:09.720Z,90.3
2023-01-10T01:01:11.169Z,90.3
2023-01-10T01:02:12.815Z,90.3
2023-01-10T01:03:13.822Z,90.3
2023-01-10T01:04:14.722Z,90.3
2023-01-10T01:05:15.382Z,90.2
2023-01-10T01:06:16.282Z,90.3
2023-01-10T01:07:16.913Z,90.3
2023-01-10T01:08:17.814Z,90.3
2023-01-10T01:09:18.712Z,90.3
2023-01-10T01:10:19.345Z,90.2
2023-01-10T01:11:20.481Z,90.2
2023-01-10T01:12:21.610Z,90.2
2023-01-10T01:13:22.748Z,90.1
2023-01-10T01:14:23.609Z,90.1
2023-01-10T01:15:24.745Z,90.1
2023-01-10T01:16:25.370Z,90.1
2023-01-10T01:17:26.011Z,90.1
2023-01-10T01:18:26.850Z,90.1
2023-01-10T01:19:27.706Z,90.1
2023-01-10T01:20:29.117Z,90.1
2023-01-10T01:21:29.980Z,90.1
2023-01-10T01:22:31.113Z,90.2
2023-01-10T01:23:32.008Z,90.2
2023-01-10T01:24:32.624Z,90.2
2023-01-10T01:25:33.520Z,90.2
2023-01-10T01:26:34.945Z,90.2
2023-01-10T01:27:35.806Z,90.2
2023-01-10T01:28:36.981Z,90.3
2023-01-10T01:29:44.060Z,90.3
2023-01-10T01:30:44.965Z,90.3
2023-01-10T01:31:46.218Z,90.3
2023-01-10T01:32:47.786Z,90.3
2023-01-10T01:33:48.626Z,90.3
2023-01-10T01:34:49.248Z,90.2
2023-01-10T01:35:50.120Z,90.2
2023-01-10T01:36:51.244Z,90.1
2023-01-10T01:37:52.376Z,90
2023-01-10T01:38:52.993Z,90
2023-01-10T01:39:54.126Z,90
2023-01-10T01:40:55.022Z,90
2023-01-10T01:41:56.162Z,90
2023-01-10T01:42:56.780Z,90
2023-01-10T01:43:57.638Z,90
2023-01-10T01:44:58.535Z,90.1
2023-01-10T01:45:59.820Z,90.1
2023-01-10T01:47:00.526Z,90.1
2023-01-10T01:48:01.970Z,90.2
2023-01-10T01:49:02.589Z,90.2
2023-01-10T01:50:03.225Z,90.2
2023-01-10T01:51:04.372Z,90.3
2023-01-10T01:52:05.507Z,90.3
2023-01-10T01:53:06.127Z,90.2
2023-01-10T01:54:06.750Z,90.2
2023-01-10T01:55:07.891Z,90.1
2023-01-10T01:56:09.300Z,90.1
2023-01-10T01:57:10.436Z,90.1
2023-01-10T01:58:11.848Z,90
2023-01-10T01:59:13.263Z,90.1
2023-01-10T02:00:13.884Z,90.1
2023-01-10T02:01:15.540Z,90.1
2023-01-10T02:02:17.494Z,90.1
2023-01-10T02:03:18.837Z,90.2
2023-01-10T02:04:20.108Z,90.3
2023-01-10T02:05:20.747Z,90.3
2023-01-10T02:06:31.756Z,90.3
2023-01-10T02:07:32.652Z,90.4
2023-01-10T02:08:33.802Z,90.4
2023-01-10T02:09:34.929Z,90.5
2023-01-10T02:10:35.783Z,90.5
2023-01-10T02:11:36.920Z,90.5
2023-01-10T02:12:37.814Z,90.5
2023-01-10T02:13:38.955Z,90.6
2023-01-10T02:14:39.571Z,90.6
2023-01-10T02:15:41.106Z,90.7
2023-01-10T02:16:42.495Z,90.7
2023-01-10T02:17:43.620Z,90.7
2023-01-10T02:18:44.785Z,90.7
2023-01-10T02:19:45.900Z,90.7
2023-01-10T02:20:47.315Z,90.7
2023-01-10T02:21:47.937Z,90.7
2023-01-10T02:22:48.560Z,90.7
2023-01-10T02:23:49.979Z,90.7
2023-01-10T02:24:50.881Z,90.7
2023-01-10T02:25:51.866Z,90.7
2023-01-10T02:26:52.723Z,90.7
2023-01-10T02:27:53.340Z,90.6
2023-01-10T02:28:53.960Z,90.6
2023-01-10T02:29:55.135Z,90.6
2023-01-10T02:30:55.791Z,90.5
2023-01-10T02:31:56.709Z,90.5
2023-01-10T02:33:06.074Z,90.4
2023-01-10T02:34:07.010Z,90.4
2023-01-10T02:35:08.199Z,90.3
2023-01-10T02:36:09.393Z,90.3
2023-01-10T02:37:10.529Z,90.3
2023-01-10T02:38:11.427Z,90.2
2023-01-10T02:39:12.675Z,90.2
2023-01-10T02:40:13.815Z,90.1
2023-01-10T02:41:14.710Z,90.1
2023-01-10T02:42:15.330Z,90.1
2023-01-10T02:43:16.191Z,90.1
2023-01-10T02:44:18.936Z,90.1
2023-01-10T02:45:20.352Z,90
2023-01-10T02:46:21.289Z,89.9
2023-01-10T02:47:22.520Z,89.9
2023-01-10T02:48:23.942Z,89.9
2023-01-10T02:49:25.094Z,89.9
2023-01-10T02:50:25.924Z,89.9
2023-01-10T02:51:27.380Z,89.9
2023-01-10T02:52:28.024Z,89.8
2023-01-10T02:53:29.154Z,89.8
2023-01-10T02:54:29.799Z,89.8
2023-01-10T02:55:30.936Z,89.7
2023-01-10T02:56:32.067Z,89.7
2023-01-10T02:57:32.961Z,89.7
2023-01-10T02:58:34.103Z,89.6
2023-01-10T02:59:35.008Z,89.5
2023-01-10T03:00:35.921Z,89.5
2023-01-10T03:01:37.214Z,89.6
2023-01-10T03:02:38.203Z,89.7
2023-01-10T03:03:39.099Z,89.8
2023-01-10T03:04:40.469Z,90
2023-01-10T03:05:41.572Z,90.3
2023-01-10T03:06:42.984Z,90.7
2023-01-10T03:07:43.882Z,91.2
2023-01-10T03:08:45.026Z,91.4
2023-01-10T03:09:46.442Z,91.7
2023-01-10T03:10:47.567Z,91.9
2023-01-10T03:11:48.467Z,91.9
2023-01-10T03:12:49.358Z,91.9
2023-01-10T03:13:50.271Z,91.9
2023-01-10T03:14:51.172Z,91.9
2023-01-10T03:15:52.403Z,92
2023-01-10T03:16:53.785Z,92
2023-01-10T03:17:54.982Z,92
2023-01-10T03:18:56.394Z,92
2023-01-10T03:19:57.837Z,92
2023-01-10T03:20:58.945Z,92
2023-01-10T03:22:00.109Z,92
2023-01-10T03:23:01.495Z,92
2023-01-10T03:24:02.923Z,92
2023-01-10T03:25:04.107Z,92
2023-01-10T03:26:05.005Z,92.1
2023-01-10T03:27:05.862Z,92.2
2023-01-10T03:28:07.287Z,92.3
2023-01-10T03:29:08.686Z,92.4
2023-01-10T03:30:09.866Z,92.5
2023-01-10T03:31:11.238Z,92.5
2023-01-10T03:32:12.783Z,92.6
2023-01-10T03:33:13.962Z,92.6
2023-01-10T03:34:14.581Z,92.6
2023-01-10T03:35:15.231Z,92.5
2023-01-10T03:36:16.344Z,92.5
2023-01-10T03:37:16.955Z,92.5
2023-01-10T03:38:18.104Z,92.5
2023-01-10T03:39:19.001Z,92.5
2023-01-10T03:40:19.894Z,92.5
2023-01-10T03:41:20.751Z,92.5
2023-01-10T03:42:21.662Z,92.5
2023-01-10T03:43:22.511Z,92.6
2023-01-10T03:44:23.135Z,92.6
2023-01-10T03:45:24.268Z,92.6
2023-01-10T03:46:24.969Z,92.7
2023-01-10T03:47:25.886Z,92.7
2023-01-10T03:48:27.296Z,92.7
2023-01-10T03:49:27.926Z,92.7
2023-01-10T03:50:28.945Z,92.8
2023-01-10T03:51:29.835Z,92.9
2023-01-10T03:52:30.973Z,93
2023-01-10T03:53:32.844Z,93.1
2023-01-10T03:54:33.990Z,93.2
2023-01-10T03:55:34.895Z,93.2
2023-01-10T03:56:36.312Z,93.3
2023-01-10T03:57:36.932Z,93.3
2023-01-10T03:58:38.067Z,93.2
2023-01-10T03:59:38.692Z,93.3
2023-01-10T04:00:39.611Z,93.2
2023-01-10T04:01:40.935Z,93.2
2023-01-10T04:02:41.821Z,93.2
2023-01-10T04:03:42.791Z,93.2
2023-01-10T04:04:43.619Z,93.3
2023-01-10T04:05:44.377Z,93.3
2023-01-10T04:06:45.226Z,93.3
2023-01-10T04:07:46.403Z,93.3
2023-01-10T04:08:47.819Z,93.4
2023-01-10T04:09:48.963Z,93.4
2023-01-10T04:10:50.139Z,93.4
2023-01-10T04:11:50.998Z,93.4
2023-01-10T04:12:51.895Z,93.4
2023-01-10T04:13:52.747Z,93.4
2023-01-10T04:14:53.364Z,93.5
2023-01-10T04:15:54.733Z,93.7
2023-01-10T04:16:55.730Z,93.8
2023-01-10T04:17:56.591Z,93.8
2023-01-10T04:18:57.213Z,93.9
2023-01-10T04:19:58.128Z,94
2023-01-10T04:20:59.049Z,94.2
2023-01-10T04:21:59.889Z,94.5
2023-01-10T04:23:01.013Z,94.7
2023-01-10T04:24:02.428Z,94.9
2023-01-10T04:25:03.042Z,95.1
2023-01-10T04:26:03.937Z,95.2
2023-01-10T04:27:04.839Z,95.4
2023-01-10T04:28:05.743Z,95.5
2023-01-10T04:29:06.929Z,95.6
2023-01-10T04:30:07.558Z,95.7
2023-01-10T04:31:09.352Z,95.7
2023-01-10T04:32:10.292Z,95.8
2023-01-10T04:33:11.192Z,95.8
2023-01-10T04:34:12.368Z,95.8
2023-01-10T04:35:13.225Z,95.8
2023-01-10T04:36:14.156Z,95.8
2023-01-10T04:37:15.054Z,95.7
2023-01-10T04:38:16.188Z,95.7
2023-01-10T04:39:17.343Z,95.6
2023-01-10T04:40:18.241Z,95.5
2023-01-10T04:41:19.420Z,95.4
2023-01-10T04:42:20.048Z,95.3
2023-01-10T04:43:20.897Z,95.2
2023-01-10T04:44:22.311Z,95.1
2023-01-10T04:45:23.764Z,94.9
2023-01-10T04:46:25.181Z,94.7
2023-01-10T04:47:26.368Z,94.6
2023-01-10T04:48:27.263Z,94.5
2023-01-10T04:49:28.424Z,94.3
2023-01-10T04:50:29.546Z,94.2
2023-01-10T04:51:30.701Z,94.1
2023-01-10T04:52:31.807Z,94
2023-01-10T04:53:32.742Z,94
2023-01-10T04:54:34.608Z,93.9
2023-01-10T04:55:35.528Z,93.8
2023-01-10T04:56:36.666Z,93.7
2023-01-10T04:57:37.284Z,93.6
2023-01-10T04:58:38.415Z,93.5
2023-01-10T04:59:39.780Z,93.4
2023-01-10T05:00:40.967Z,93.3
2023-01-10T05:01:41.955Z,93.2
2023-01-10T05:02:43.654Z,93
2023-01-10T05:03:44.885Z,92.9
2023-01-10T05:04:46.019Z,92.8
2023-01-10T05:05:47.438Z,92.7
2023-01-10T05:06:48.080Z,92.7
2023-01-10T05:07:48.935Z,92.6
2023-01-10T05:08:50.049Z,92.5
2023-01-10T05:09:51.194Z,92.4
2023-01-10T05:10:52.046Z,92.3
2023-01-10T05:11:52.688Z,92.2
2023-01-10T05:12:54.083Z,92.1
2023-01-10T05:13:54.699Z,92
2023-01-10T05:14:56.112Z,91.9
2023-01-10T05:15:57.013Z,91.8
2023-01-10T05:16:57.910Z,91.7
2023-01-10T05:17:59.324Z,91.6
2023-01-10T05:19:00.196Z,91.6
2023-01-10T05:20:01.116Z,91.5
2023-01-10T05:21:01.740Z,91.5
2023-01-10T05:22:02.987Z,91.5
2023-01-10T05:23:03.976Z,91.6
2023-01-10T05:24:05.113Z,91.6
2023-01-10T05:25:06.387Z,91.6
2023-01-10T05:26:07.293Z,91.6
2023-01-10T05:27:07.916Z,91.6
2023-01-10T05:28:09.050Z,91.6
2023-01-10T05:29:10.463Z,91.7
2023-01-10T05:30:11.076Z,91.7
2023-01-10T05:31:11.978Z,91.8
2023-01-10T05:32:12.833Z,91.9
2023-01-10T05:33:13.456Z,92
2023-01-10T05:34:14.318Z,92
2023-01-10T05:35:15.165Z,92.1
2023-01-10T05:36:16.068Z,92.1
2023-01-10T05:37:16.993Z,92.2
2023-01-10T05:38:18.388Z,92.2
2023-01-10T05:39:19.006Z,92.3
2023-01-10T05:40:19.905Z,92.4
2023-01-10T05:41:20.810Z,92.5
2023-01-10T05:42:21.714Z,92.7
2023-01-10T05:43:22.849Z,92.8
2023-01-10T05:44:23.982Z,92.9
2023-01-10T05:45:25.161Z,92.9
2023-01-10T05:46:26.065Z,93
2023-01-10T05:47:27.481Z,93
2023-01-10T05:48:28.618Z,93
2023-01-10T05:49:29.520Z,93
2023-01-10T05:50:30.659Z,92.9
2023-01-10T05:51:31.303Z,92.9
2023-01-10T05:52:32.223Z,92.9
2023-01-10T05:53:33.117Z,92.9
2023-01-10T05:54:34.251Z,92.9
2023-01-10T05:55:35.115Z,92.8
2023-01-10T05:56:35.968Z,92.8
2023-01-10T05:57:37.102Z,92.8
2023-01-10T05:58:38.242Z,92.7
2023-01-10T05:59:39.376Z,92.7
2023-01-10T06:00:40.233Z,92.6
2023-01-10T06:01:41.144Z,92.5
2023-01-10T06:02:42.735Z,92.4
2023-01-10T06:03:43.509Z,92.3
2023-01-10T06:04:44.412Z,92.2
2023-01-10T06:05:49.298Z,92
2023-01-10T06:06:50.521Z,91.8
2023-01-10T06:07:51.678Z,91.6
2023-01-10T06:08:53.074Z,91.5
2023-01-10T06:09:54.213Z,91.4
2023-01-10T06:10:55.621Z,91.3
2023-01-10T06:11:56.479Z,91.2
2023-01-10T06:12:57.339Z,91.1
2023-01-10T06:13:58.195Z,91
2023-01-10T06:14:58.824Z,90.9
2023-01-10T06:16:00.364Z,90.7
2023-01-10T06:17:01.859Z,90.6
2023-01-10T06:18:03.274Z,90.5
2023-01-10T06:19:04.691Z,90.5
2023-01-10T06:20:05.972Z,90.4
2023-01-10T06:21:07.241Z,90.3
2023-01-10T06:22:08.134Z,90.2
2023-01-10T06:23:09.322Z,90.2
2023-01-10T06:24:10.459Z,90.1
2023-01-10T06:25:11.642Z,90
2023-01-10T06:26:12.771Z,89.9
2023-01-10T06:27:13.667Z,89.9
2023-01-10T06:28:14.534Z,89.8
2023-01-10T06:29:15.433Z,89.8
2023-01-10T06:30:16.334Z,89.7
2023-01-10T06:31:17.629Z,89.7
2023-01-10T06:32:18.597Z,89.7
2023-01-10T06:33:19.220Z,89.7
2023-01-10T06:34:19.841Z,89.7
2023-01-10T06:35:20.467Z,89.7
2023-01-10T06:36:21.597Z,89.7
2023-01-10T06:37:22.766Z,89.7
2023-01-10T06:38:23.806Z,89.8
2023-01-10T06:39:24.985Z,89.8
2023-01-10T06:40:26.396Z,89.8
2023-01-10T06:41:27.815Z,89.7
2023-01-10T06:42:28.432Z,89.7
2023-01-10T06:43:29.569Z,89.7
2023-01-10T06:44:30.470Z,89.7
2023-01-10T06:45:31.796Z,89.7
2023-01-10T06:46:32.432Z,89.6
2023-01-10T06:47:33.613Z,89.5
2023-01-10T06:48:34.230Z,89.4
2023-01-10T06:49:35.129Z,89.3
2023-01-10T06:50:36.366Z,89.2
2023-01-10T06:51:37.808Z,89.1
2023-01-10T06:52:38.944Z,89
2023-01-10T06:53:39.875Z,88.9
2023-01-10T06:54:40.700Z,88.9
2023-01-10T06:55:41.834Z,88.8
2023-01-10T06:56:42.464Z,88.8
2023-01-10T06:57:43.313Z,88.7
2023-01-10T06:58:44.454Z,88.7
2023-01-10T06:59:45.326Z,88.7
2023-01-10T07:00:46.446Z,88.6
2023-01-10T07:01:47.996Z,88.5
2023-01-10T07:02:49.489Z,88.5
2023-01-10T07:03:50.707Z,88.4
2023-01-10T07:04:51.901Z,88.3
2023-01-10T07:05:53.037Z,88.2
2023-01-10T07:06:53.663Z,88.2
2023-01-10T07:07:54.803Z,88.1
2023-01-10T07:08:55.962Z,88
2023-01-10T07:09:57.136Z,88
2023-01-10T07:10:58.276Z,87.9
2023-01-10T07:11:59.190Z,87.8
2023-01-10T07:13:00.094Z,87.8
2023-01-10T07:14:00.949Z,87.7
2023-01-10T07:15:02.385Z,87.6
2023-01-10T07:16:03.445Z,87.6
2023-01-10T07:17:04.552Z,87.6
2023-01-10T07:18:05.175Z,87.5
2023-01-10T07:19:06.034Z,87.5
2023-01-10T07:20:07.162Z,87.4
2023-01-10T07:21:08.019Z,87.4
2023-01-10T07:22:08.641Z,87.3
2023-01-10T07:23:09.513Z,87.3
2023-01-10T07:24:10.714Z,87.3
2023-01-10T07:25:11.891Z,87.3
2023-01-10T07:26:13.032Z,87.3
2023-01-10T07:27:13.658Z,87.3
2023-01-10T07:28:14.511Z,87.2
2023-01-10T07:29:15.129Z,87.2
2023-01-10T07:30:16.309Z,87.2
2023-01-10T07:31:17.284Z,87.2
2023-01-10T07:32:18.205Z,87.1
2023-01-10T07:33:19.113Z,87.1
2023-01-10T07:34:20.008Z,87.1
2023-01-10T07:35:21.146Z,87
2023-01-10T07:36:22.052Z,87
2023-01-10T07:37:23.207Z,86.9
2023-01-10T07:38:23.834Z,86.9
2023-01-10T07:39:24.757Z,86.8
2023-01-10T07:40:25.668Z,86.8
2023-01-10T07:41:26.288Z,86.7
2023-01-10T07:42:26.915Z,86.7
2023-01-10T07:43:28.133Z,86.7
2023-01-10T07:44:29.043Z,86.6
2023-01-10T07:45:30.075Z,86.6
2023-01-10T07:46:31.755Z,86.6
2023-01-10T07:47:32.600Z,86.6
2023-01-10T07:48:33.736Z,86.5
2023-01-10T07:49:34.593Z,86.5
2023-01-10T07:50:35.732Z,86.5
2023-01-10T07:51:36.882Z,86.5
2023-01-10T07:52:37.526Z,86.5
2023-01-10T07:53:38.930Z,86.5
2023-01-10T07:54:40.391Z,86.4
2023-01-10T07:55:41.290Z,86.4
2023-01-10T07:56:41.917Z,86.4
2023-01-10T07:57:43.507Z,86.4
2023-01-10T07:58:44.639Z,86.4
2023-01-10T07:59:45.817Z,86.4
2023-01-10T08:00:46.675Z,86.4
2023-01-10T08:01:48.089Z,86.4
2023-01-10T08:02:49.687Z,86.5
2023-01-10T08:03:50.843Z,86.5
2023-01-10T08:04:52.245Z,86.4
2023-01-10T08:05:53.103Z,86.4
2023-01-10T08:06:54.237Z,86.4
2023-01-10T08:07:55.656Z,86.4
2023-01-10T08:08:56.561Z,86.3
2023-01-10T08:09:57.725Z,86.2
2023-01-10T08:10:58.559Z,86.2
2023-01-10T08:11:59.691Z,86.1
2023-01-10T08:13:19.601Z,86.1
2023-01-10T08:14:21.147Z,86.1
2023-01-10T08:15:22.052Z,86
2023-01-10T08:16:23.192Z,86
2023-01-10T08:17:24.653Z,86
2023-01-10T08:18:25.834Z,86
2023-01-10T08:19:26.746Z,86
2023-01-10T08:20:31.076Z,85.9
2023-01-10T08:21:32.258Z,85.9
2023-01-10T08:22:33.679Z,85.9
2023-01-10T08:23:35.090Z,85.8
2023-01-10T08:24:35.999Z,85.8
2023-01-10T08:25:40.301Z,85.7
2023-01-10T08:26:41.690Z,85.6
2023-01-10T08:27:42.872Z,85.6
2023-01-10T08:28:44.060Z,85.5
2023-01-10T08:29:44.960Z,85.4
2023-01-10T08:30:46.140Z,85.4
2023-01-10T08:31:47.280Z,85.3
2023-01-10T08:32:48.697Z,85.3
2023-01-10T08:33:50.009Z,85.3
2023-01-10T08:34:51.417Z,85.2
2023-01-10T08:35:52.847Z,85.2
2023-01-10T08:36:54.249Z,85.2
2023-01-10T08:37:54.877Z,85.1
2023-01-10T08:38:56.031Z,85.1
2023-01-10T08:39:57.432Z,85
2023-01-10T08:40:58.317Z,85
2023-01-10T08:41:59.431Z,84.9
2023-01-10T08:43:00.980Z,84.9
2023-01-10T08:44:02.383Z,84.8
2023-01-10T08:45:03.292Z,84.8
2023-01-10T08:46:05.037Z,84.7
2023-01-10T08:47:06.613Z,84.6
2023-01-10T08:48:07.792Z,84.6
2023-01-10T08:49:09.211Z,84.5
2023-01-10T08:50:10.351Z,84.5
2023-01-10T08:51:10.974Z,84.4
2023-01-10T08:52:12.386Z,84.3
2023-01-10T08:53:13.563Z,84.2
2023-01-10T08:54:14.705Z,84.1
2023-01-10T08:55:15.578Z,84
2023-01-10T08:56:16.721Z,84
2023-01-10T08:57:17.560Z,83.9
2023-01-10T08:58:18.972Z,83.8
2023-01-10T08:59:20.383Z,83.7
2023-01-10T09:00:21.287Z,83.6
2023-01-10T09:01:22.812Z,83.6
2023-01-10T09:02:24.235Z,83.5
2023-01-10T09:03:25.668Z,83.4
2023-01-10T09:04:26.810Z,83.3
2023-01-10T09:05:29.401Z,83.2
2023-01-10T09:06:30.807Z,83.1
2023-01-10T09:07:32.217Z,83
2023-01-10T09:08:32.864Z,82.9
2023-01-10T09:09:34.275Z,82.8
2023-01-10T09:10:35.193Z,82.7
2023-01-10T09:11:36.341Z,82.5
2023-01-10T09:12:37.737Z,82.3
2023-01-10T09:13:39.148Z,82.1
2023-01-10T09:14:40.561Z,82
2023-01-10T09:15:41.515Z,81.9
2023-01-10T09:16:43.903Z,81.8
2023-01-10T09:17:45.319Z,81.8
2023-01-10T09:18:46.222Z,81.7
2023-01-10T09:19:47.638Z,81.6
2023-01-10T09:20:49.062Z,81.5
2023-01-10T09:21:50.203Z,81.5
2023-01-10T09:22:51.102Z,81.3
2023-01-10T09:23:52.239Z,81.3
2023-01-10T09:24:53.650Z,81.3
2023-01-10T09:25:55.066Z,81.2
2023-01-10T09:26:56.009Z,81.2
2023-01-10T09:27:57.109Z,81.2
2023-01-10T09:28:58.529Z,81.2
2023-01-10T09:29:59.958Z,81.2
2023-01-10T09:31:01.674Z,81.2
2023-01-10T09:32:02.874Z,81.2
2023-01-10T09:33:04.001Z,81.2
2023-01-10T09:34:05.136Z,81.1
2023-01-10T09:35:06.511Z,81.1
2023-01-10T09:36:10.816Z,81.1
2023-01-10T09:37:12.002Z,81.1
2023-01-10T09:38:12.859Z,81.1
2023-01-10T09:39:16.736Z,81
2023-01-10T09:40:18.110Z,81
2023-01-10T09:41:19.252Z,80.9
2023-01-10T09:42:19.906Z,80.7
2023-01-10T09:43:20.769Z,80.5
2023-01-10T09:44:21.964Z,80.4
2023-01-10T09:45:23.157Z,80.3
2023-01-10T09:46:24.726Z,80.3
2023-01-10T09:47:25.573Z,80.2
2023-01-10T09:48:26.709Z,80.1
2023-01-10T09:49:27.615Z,80
2023-01-10T09:50:28.814Z,79.9
2023-01-10T09:51:29.951Z,79.8
2023-01-10T09:52:31.081Z,79.6
2023-01-10T09:53:31.931Z,79.5
2023-01-10T09:54:33.352Z,79.3
2023-01-10T09:55:34.533Z,79.3
2023-01-10T09:56:35.949Z,79.2
2023-01-10T09:57:37.390Z,78.9
2023-01-10T09:58:38.579Z,78.7
2023-01-10T09:59:39.716Z,78.6
2023-01-10T10:00:41.699Z,78.5
2023-01-10T10:01:42.831Z,78.5
2023-01-10T10:02:43.730Z,78.5
2023-01-10T10:03:45.311Z,78.4
2023-01-10T10:04:46.792Z,78.4
2023-01-10T10:05:48.207Z,78.3
2023-01-10T10:06:50.408Z,78.4
2023-01-10T10:07:51.736Z,78.3
2023-01-10T10:08:52.639Z,78.3
2023-01-10T10:09:53.775Z,78.3
2023-01-10T10:10:55.196Z,78.3
2023-01-10T10:11:56.099Z,78.2
2023-01-10T10:12:57.299Z,78.5
2023-01-10T10:13:58.416Z,78.4
2023-01-10T10:14:59.587Z,78.4
2023-01-10T10:16:01.227Z,78.3
2023-01-10T10:17:02.747Z,78.5
2023-01-10T10:18:03.932Z,78.7
2023-01-10T10:19:05.060Z,78.7
2023-01-10T10:20:06.203Z,78.8
2023-01-10T10:21:07.103Z,78.8
2023-01-10T10:22:08.014Z,78.7
2023-01-10T10:23:09.166Z,78.7
2023-01-10T10:24:10.003Z,78.6
2023-01-10T10:25:10.867Z,78.6
2023-01-10T10:26:11.995Z,78.6
2023-01-10T10:27:13.417Z,78.6
2023-01-10T10:28:14.850Z,78.6
2023-01-10T10:29:15.964Z,78.7
2023-01-10T10:30:16.906Z,78.7
2023-01-10T10:31:18.551Z,78.7
2023-01-10T10:32:19.673Z,78.7
2023-01-10T10:33:20.816Z,78.7
2023-01-10T10:34:22.235Z,78.6
2023-01-10T10:35:23.369Z,78.4
2023-01-10T10:36:24.562Z,78.3
2023-01-10T10:37:25.465Z,78.2
2023-01-10T10:38:26.644Z,78.1
2023-01-10T10:39:27.779Z,77.9
2023-01-10T10:40:29.192Z,77.8
2023-01-10T10:41:30.103Z,77.5
2023-01-10T10:42:30.954Z,77.2
2023-01-10T10:43:32.138Z,77.4
2023-01-10T10:44:33.043Z,76.9
2023-01-10T10:45:34.681Z,77
2023-01-10T10:46:35.937Z,76.6
2023-01-10T10:47:36.838Z,76.1
2023-01-10T10:48:38.011Z,75.8
2023-01-10T10:49:39.449Z,75.2
2023-01-10T10:50:40.862Z,74.9
2023-01-10T10:51:42.271Z,74.3
2023-01-10T10:52:43.695Z,73.8
2023-01-10T10:53:44.639Z,72.9
2023-01-10T10:54:48.266Z,72.8
2023-01-10T10:55:49.738Z,72.5
2023-01-10T10:56:51.159Z,72.3
2023-01-10T10:58:01.782Z,72.4
2023-01-10T10:59:02.737Z,72.4
2023-01-10T11:00:04.148Z,72.4
2023-01-10T11:01:05.945Z,72
2023-01-10T11:02:07.974Z,71.2
2023-01-10T11:03:09.162Z,70.9
2023-01-10T11:04:10.581Z,71.3
2023-01-10T11:05:11.841Z,71.2
2023-01-10T11:06:13.055Z,71.1
2023-01-10T11:07:14.236Z,71.1
2023-01-10T11:08:15.379Z,70.9
2023-01-10T11:09:16.281Z,70.9
2023-01-10T11:10:17.696Z,70.6
2023-01-10T11:11:19.115Z,70
2023-01-10T11:12:20.544Z,70.4
2023-01-10T11:13:21.949Z,70.7
2023-01-10T11:14:23.396Z,71.1
2023-01-10T11:15:24.775Z,70.9
2023-01-10T11:16:26.016Z,70.8
2023-01-10T11:17:27.164Z,71.3
2023-01-10T11:18:28.581Z,71.6
2023-01-10T11:19:29.482Z,71.5
2023-01-10T11:20:30.855Z,71.4
2023-01-10T11:21:31.990Z,71.3
2023-01-10T11:22:33.174Z,71
2023-01-10T11:23:34.592Z,71.1
2023-01-10T11:24:35.506Z,70.9
2023-01-10T11:25:36.924Z,71
2023-01-10T11:26:38.101Z,71.2
2023-01-10T11:27:38.959Z,71.7
2023-01-10T11:28:39.861Z,71.9
2023-01-10T11:29:40.856Z,71.7
2023-01-10T11:30:41.976Z,71.9
2023-01-10T11:31:43.435Z,72.4
2023-01-10T11:32:44.849Z,72.5
2023-01-10T11:33:46.029Z,72.5
2023-01-10T11:34:46.907Z,72.6
2023-01-10T11:35:47.771Z,72.8
2023-01-10T11:36:49.731Z,73
2023-01-10T11:37:50.591Z,73.2
2023-01-10T11:38:52.002Z,73.4
2023-01-10T11:39:53.181Z,73.6
2023-01-10T11:40:54.085Z,73.6
2023-01-10T11:41:55.263Z,73.7
2023-01-10T11:43:00.044Z,73.7
2023-01-10T11:44:00.947Z,73.7
2023-01-10T11:45:02.388Z,73.8
2023-01-10T11:46:03.830Z,73.9
2023-01-10T11:47:05.137Z,73.9
2023-01-10T11:48:06.273Z,73.8
2023-01-10T11:49:09.506Z,73.8
2023-01-10T11:50:10.924Z,73.8
2023-01-10T11:51:12.056Z,73.7
2023-01-10T11:52:13.479Z,73.6
2023-01-10T11:53:14.891Z,73.4
2023-01-10T11:54:15.511Z,73.2
2023-01-10T11:55:16.686Z,73.1
2023-01-10T11:56:17.863Z,73.3
2023-01-10T11:57:18.485Z,73.2
2023-01-10T11:58:19.393Z,73.1
2023-01-10T11:59:20.303Z,73.1
2023-01-10T12:00:21.742Z,73.3
2023-01-10T12:01:23.319Z,73.6
2023-01-10T12:02:24.578Z,73.9
2023-01-10T12:03:25.813Z,74
2023-01-10T12:04:27.227Z,74.3
2023-01-10T12:05:28.846Z,74.4
2023-01-10T12:06:29.878Z,74.7
2023-01-10T12:07:31.061Z,74.5
2023-01-10T12:08:32.193Z,74.5
2023-01-10T12:09:33.100Z,74.7
2023-01-10T12:10:34.530Z,74.8
2023-01-10T12:11:35.657Z,74.9
2023-01-10T12:12:36.515Z,74.8
2023-01-10T12:13:37.422Z,74.8
2023-01-10T12:14:38.328Z,74.5
2023-01-10T12:15:39.764Z,74.6
2023-01-10T12:16:41.024Z,74.6
2023-01-10T12:17:41.667Z,74.6
2023-01-10T12:18:42.805Z,74.5
2023-01-10T12:19:43.950Z,74.7
2023-01-10T12:20:44.853Z,74.6
2023-01-10T12:21:46.043Z,74.8
2023-01-10T12:22:47.454Z,74.8
2023-01-10T12:23:48.868Z,74.7
2023-01-10T12:24:50.004Z,74.1
2023-01-10T12:26:12.402Z,73.8
2023-01-10T12:27:13.439Z,73.6
2023-01-10T12:28:14.863Z,73.3
2023-01-10T12:29:16.050Z,73.1
2023-01-10T12:30:16.989Z,73.2
2023-01-10T12:31:17.840Z,73.4
2023-01-10T12:32:18.742Z,73.7
2023-01-10T12:33:20.159Z,73.9
2023-01-10T12:34:21.296Z,74
2023-01-10T12:35:22.441Z,74.3
2023-01-10T12:36:23.845Z,74.5
2023-01-10T12:37:24.992Z,74.9
2023-01-10T12:38:25.893Z,75
2023-01-10T12:39:27.078Z,75
2023-01-10T12:40:27.981Z,75.1
2023-01-10T12:41:29.116Z,75.1
2023-01-10T12:42:30.127Z,75.1
2023-01-10T12:43:31.269Z,75.1
2023-01-10T12:44:32.172Z,75.1
2023-01-10T12:45:33.028Z,75
2023-01-10T12:47:12.871Z,74.9
2023-01-10T12:48:14.574Z,74.8
2023-01-10T12:49:15.477Z,74.7
2023-01-10T12:50:16.358Z,74.3
2023-01-10T12:51:17.254Z,74
2023-01-10T12:52:17.877Z,73.9
2023-01-10T12:53:19.060Z,73.5
2023-01-10T12:54:20.473Z,73.3
2023-01-10T12:55:21.630Z,73.3
2023-01-10T12:56:23.041Z,73
2023-01-10T12:57:24.179Z,72.7
2023-01-10T12:58:25.312Z,72.4
2023-01-10T12:59:38.578Z,72.2
2023-01-10T13:00:49.537Z,72
2023-01-10T13:01:51.265Z,71.9
2023-01-10T13:02:52.874Z,71.6
2023-01-10T13:03:54.267Z,71.4
2023-01-10T13:04:54.889Z,71.1
2023-01-10T13:05:56.309Z,70.9
2023-01-10T13:06:57.875Z,70.8
2023-01-10T13:07:58.796Z,70.8
2023-01-10T13:08:59.691Z,70.9
2023-01-10T13:10:00.911Z,71
2023-01-10T13:11:02.027Z,71.1
2023-01-10T13:12:03.458Z,71.2
2023-01-10T13:13:04.314Z,71.3
2023-01-10T13:14:05.177Z,71.5
2023-01-10T13:15:06.354Z,71.7
2023-01-10T13:16:07.940Z,71.8
2023-01-10T13:17:08.871Z,72
2023-01-10T13:18:10.233Z,72.1
2023-01-10T13:19:11.464Z,72.2
2023-01-10T13:20:12.598Z,72.3
2023-01-10T13:21:13.798Z,72.4
2023-01-10T13:22:14.911Z,72.5
2023-01-10T13:23:16.096Z,72.5
2023-01-10T13:24:16.953Z,72.5
2023-01-10T13:25:18.091Z,72.6
2023-01-10T13:26:18.984Z,72.6
2023-01-10T13:27:20.171Z,72.6
2023-01-10T13:28:21.582Z,72.6
2023-01-10T13:29:22.992Z,72.6
2023-01-10T13:30:24.407Z,72.6
2023-01-10T13:31:25.367Z,72.6
2023-01-10T13:32:26.316Z,72.6
2023-01-10T13:33:27.471Z,72.6
2023-01-10T13:34:28.594Z,72.6
2023-01-10T13:35:29.776Z,72.5
2023-01-10T13:36:30.913Z,72.4
2023-01-10T13:37:32.331Z,72.3
2023-01-10T13:38:33.467Z,72.2
2023-01-10T13:39:34.615Z,72.2
2023-01-10T13:40:35.795Z,72.2